Flight Track Log - Related Links

Times and Time Zones

All times are in EDT time to prevent confusion due to time zone crossing. See the SWA34 flight status page for this flight to view local times or setup timezone preferences in your user account.

Time Position Orientation Groundspeed Altitude Reporting Facility
EDT Latitude Longitude Course Direction KTS MPH feet Rate Location/Type
Tue 03:37:55 PM 29.6308 -95.2633 104° East 197 227 700  Level Houston Center
Tue 03:38:13 PM 29.6272 -95.2469 104° East 173 199 1,500 2,000 Climbing Houston Center
Tue 03:39:10 PM 29.6725 -95.2256 22° Northeast 238 274 3,200 2,218 Climbing Houston Center
Tue 03:40:12 PM 29.7397 -95.2564 338° Northwest 267 307 5,900 3,048 Climbing Houston Center
Tue 03:41:14 PM 29.8014 -95.3031 327° Northwest 261 300 9,500 2,448 Climbing Houston Center
Tue 03:42:17 PM 29.8831 -95.3211 349° North 297 342 11,000 2,448 Climbing Houston Center
Tue 03:43:19 PM 29.9925 -95.3472 348° North 329 379 14,600 2,758 Climbing Houston Center
Tue 03:44:21 PM 30.0858 -95.3697 348° North 340 391 16,700 1,935 Climbing Houston Center
Tue 03:45:23 PM 30.1858 -95.3942 348° North 362 417 18,600 1,935 Climbing Houston Center
Tue 03:46:25 PM 30.2897 -95.4183 349° North 377 434 20,700 1,872 Climbing Houston Center
Tue 03:47:28 PM 30.3964 -95.4444 348° North 388 447 22,500 1,645 Climbing Houston Center
Tue 03:48:29 PM 30.5058 -95.4692 349° North 397 457 24,100 1,597 Climbing Houston Center
Tue 03:49:32 PM 30.6361 -95.5258 339° North 414 476 25,800 1,536 Climbing Houston Center
Tue 03:50:34 PM 30.7414 -95.5714 340° North 417 480 27,300 1,548 Climbing Houston Center
Tue 03:51:36 PM 30.8531 -95.6200 340° North 424 488 29,000 1,210 Climbing Houston Center
Tue 03:52:38 PM 30.9644 -95.6694 339° North 424 488 29,800 484 Climbing Houston Center
Tue 03:53:40 PM 31.0797 -95.7197 340° North 435 501 30,000 -48 Climbing Houston Center
Tue 03:54:42 PM 31.2158 -95.7794 339° North 432 497 29,700 -727 Descending Houston Center
Tue 03:55:52 PM 31.3372 -95.8422 336° Northwest 425 489 28,400 -1,062 Descending Fort Worth Center
Tue 03:56:52 PM 31.4156 -95.9286 317° Northwest 400 460 27,400 -1,000 Descending Fort Worth Center
Tue 03:57:52 PM 31.5000 -96.0197 317° Northwest 400 460 26,400 -1,000 Descending Fort Worth Center
Tue 03:58:52 PM 31.6047 -96.0572 343° North 371 427 25,400 -1,050 Descending Fort Worth Center
Tue 03:59:52 PM 31.7136 -96.0872 347° North 390 449 24,300 -1,700 Descending Fort Worth Center
Tue 04:00:52 PM 31.8164 -96.1150 347° North 393 452 22,000 -2,250 Descending Fort Worth Center
Tue 04:01:52 PM 31.9208 -96.1456 346° North 386 444 19,800 -2,100 Descending Fort Worth Center
Tue 04:02:52 PM 32.0131 -96.1711 347° North 363 418 17,800 -1,900 Descending Fort Worth Center
Tue 04:03:52 PM 32.0969 -96.1947 347° North 343 395 16,000 -1,950 Descending Fort Worth Center
Tue 04:04:52 PM 32.1889 -96.2253 344° North 335 386 13,900 -2,100 Descending Fort Worth Center
Tue 04:05:52 PM 32.2750 -96.2708 336° Northwest 327 376 11,800 -1,800 Descending Fort Worth Center
Tue 04:06:52 PM 32.3547 -96.3189 333° Northwest 318 366 10,300 -1,200 Descending Fort Worth Center
Tue 04:07:52 PM 32.4197 -96.3600 332° Northwest 290 334 9,400 -750 Descending Fort Worth Center
Tue 04:08:52 PM 32.4911 -96.4036 333° Northwest 277 319 8,800 -1,200 Descending Fort Worth Center
Tue 04:09:52 PM 32.5625 -96.4447 334° Northwest 283 326 7,000 -1,600 Descending Fort Worth Center
Tue 04:10:52 PM 32.6294 -96.4858 333° Northwest 283 326 5,600 -1,000 Descending Fort Worth Center
Tue 04:11:52 PM 32.6967 -96.5322 330° Northwest 283 326 5,000 -300 Descending Fort Worth Center
Tue 04:12:52 PM 32.7492 -96.5736 326° Northwest 241 277 5,000  Level Fort Worth Center
Tue 04:13:52 PM 32.8039 -96.6200 325° Northwest 235 270 5,000 -400 Level Fort Worth Center
Tue 04:14:52 PM 32.8583 -96.6617 327° Northwest 235 270 4,200 -741 Descending Fort Worth Center
Tue 04:15:13 PM 32.8833 -96.6833 324° Northwest 234 269 4,000 -150 Descending Dallas / Fort Worth TRACON
Tue 04:16:12 PM 32.9167 -96.7333 308° West 231 266 4,000 50 Level Dallas / Fort Worth TRACON
Tue 04:17:12 PM 32.9333 -96.8167 283° West 231 266 4,100  Climbing Dallas / Fort Worth TRACON
Tue 04:18:12 PM 32.9667 -96.8667 308° West 190 219 4,000 -750 Descending Dallas / Fort Worth TRACON
Tue 04:19:12 PM 32.9333 -96.9167 232° Southwest 145 167 2,600 -1,105 Descending Dallas / Fort Worth TRACON
Tue 04:20:06 PM 32.9000 -96.9167 180° South 148 170 1,900 -800 Descending Dallas / Fort Worth TRACON
Tue 04:21:12 PM 32.8667 -96.8833 140° Southeast 144 166 1,000 -818 Descending Dallas / Fort Worth TRACON
Tue 04:23:00 PM 32.8471 -96.8518 146° Southeast  Level Estimated

Login

Don't have an account? Register now (free) for customized features, flight alerts, and more!